createdAt,value
2023-04-25T00:00:23.557Z,15.60
2023-04-25T00:02:51.477Z,15.60
2023-04-25T00:05:21.155Z,15.60
2023-04-25T00:07:49.776Z,15.50
2023-04-25T00:10:17.709Z,15.50
2023-04-25T00:12:45.508Z,15.50
2023-04-25T00:15:13.696Z,15.50
2023-04-25T00:17:41.780Z,15.50
2023-04-25T00:20:12.891Z,15.40
2023-04-25T00:22:40.948Z,15.40
2023-04-25T00:25:09.131Z,15.30
2023-04-25T00:27:37.233Z,15.20
2023-04-25T00:30:05.713Z,15.20
2023-04-25T00:32:33.643Z,15.20
2023-04-25T00:35:01.362Z,15.20
2023-04-25T00:37:29.422Z,15.10
2023-04-25T00:39:59.644Z,15.10
2023-04-25T00:42:27.684Z,15.00
2023-04-25T00:44:56.779Z,15.00
2023-04-25T00:47:26.669Z,14.90
2023-04-25T00:49:54.844Z,14.90
2023-04-25T00:52:22.715Z,14.90
2023-04-25T00:54:50.758Z,15.00
2023-04-25T00:57:19.051Z,15.00
2023-04-25T00:59:48.082Z,15.00
2023-04-25T01:02:16.231Z,14.90
2023-04-25T01:04:44.336Z,14.90
2023-04-25T01:07:12.439Z,14.90
2023-04-25T01:09:40.582Z,14.90
2023-04-25T01:12:08.784Z,14.90
2023-04-25T01:14:36.708Z,14.80
2023-04-25T01:17:08.900Z,14.80
2023-04-25T01:19:37.237Z,14.80
2023-04-25T01:22:05.434Z,14.80
2023-04-25T01:24:34.770Z,14.80
2023-04-25T01:27:03.531Z,14.80
2023-04-25T01:29:33.892Z,14.80
2023-04-25T01:32:02.688Z,14.70
2023-04-25T01:34:31.480Z,14.70
2023-04-25T01:37:03.084Z,14.70
2023-04-25T01:39:31.373Z,14.60
2023-04-25T01:42:00.344Z,14.60
2023-04-25T01:44:28.515Z,14.60
2023-04-25T01:46:56.632Z,14.60
2023-04-25T01:49:25.189Z,14.60
2023-04-25T01:51:53.214Z,14.60
2023-04-25T01:54:21.677Z,14.60
2023-04-25T01:56:52.967Z,14.60
2023-04-25T01:59:23.293Z,14.60
2023-04-25T02:02:06.525Z,14.60
2023-04-25T02:04:36.561Z,14.50
2023-04-25T02:07:05.503Z,14.50
2023-04-25T02:09:50.218Z,14.50
2023-04-25T02:12:19.936Z,14.50
2023-04-25T02:14:56.985Z,14.50
2023-04-25T02:17:42.308Z,14.40
2023-04-25T02:20:11.800Z,14.40
2023-04-25T02:22:41.067Z,14.40
2023-04-25T02:25:10.537Z,14.40
2023-04-25T02:27:38.660Z,14.40
2023-04-25T02:30:08.176Z,14.40
2023-04-25T02:32:36.377Z,14.40
2023-04-25T02:35:07.615Z,14.40
2023-04-25T02:37:36.738Z,14.40
2023-04-25T02:40:05.653Z,14.40
2023-04-25T02:42:33.968Z,14.40
2023-04-25T02:45:01.941Z,14.30
2023-04-25T02:47:30.679Z,14.30
2023-04-25T02:49:58.716Z,14.30
2023-04-25T02:52:26.767Z,14.30
2023-04-25T02:55:01.561Z,14.30
2023-04-25T02:57:30.694Z,14.30
2023-04-25T02:59:58.664Z,14.30
2023-04-25T03:02:26.897Z,14.30
2023-04-25T03:04:55.395Z,14.30
2023-04-25T03:07:23.437Z,14.20
2023-04-25T03:09:51.532Z,14.20
2023-04-25T03:12:19.649Z,14.20
2023-04-25T03:14:47.557Z,14.10
2023-04-25T03:17:17.374Z,14.10
2023-04-25T03:19:45.420Z,14.10
2023-04-25T03:22:13.412Z,14.10
2023-04-25T03:24:41.956Z,14.10
2023-04-25T03:27:10.845Z,14.20
2023-04-25T03:29:40.380Z,14.20
2023-04-25T03:32:08.727Z,14.20
2023-04-25T03:34:36.855Z,14.20
2023-04-25T03:37:04.861Z,14.20
2023-04-25T03:39:37.453Z,14.20
2023-04-25T03:42:05.609Z,14.20
2023-04-25T03:44:33.617Z,14.30
2023-04-25T03:47:02.367Z,14.30
2023-04-25T03:49:31.343Z,14.30
2023-04-25T03:52:02.502Z,14.30
2023-04-25T03:54:36.032Z,14.30
2023-04-25T03:57:24.719Z,14.30
2023-04-25T03:59:52.651Z,14.20
2023-04-25T04:02:20.750Z,14.20
2023-04-25T04:04:49.546Z,14.10
2023-04-25T04:07:17.806Z,14.10
2023-04-25T04:09:48.560Z,14.10
2023-04-25T04:12:25.589Z,14.10
2023-04-25T04:14:53.688Z,14.10
2023-04-25T04:17:22.157Z,14.20
2023-04-25T04:19:51.074Z,14.20
2023-04-25T04:22:22.342Z,14.20
2023-04-25T04:24:51.277Z,14.20
2023-04-25T04:27:42.354Z,14.20
2023-04-25T04:30:48.202Z,14.20
2023-04-25T04:33:21.062Z,14.20
2023-04-25T04:35:57.098Z,14.20
2023-04-25T04:38:25.459Z,14.30
2023-04-25T04:40:57.309Z,14.20
2023-04-25T04:43:34.693Z,14.30
2023-04-25T04:46:23.238Z,14.40
2023-04-25T04:49:11.814Z,14.50
2023-04-25T04:51:48.850Z,14.50
2023-04-25T04:54:36.958Z,14.50
2023-04-25T04:57:18.303Z,14.60
2023-04-25T05:00:06.654Z,14.60
2023-04-25T05:03:00.966Z,14.60
2023-04-25T05:05:47.328Z,14.60
2023-04-25T05:08:33.399Z,14.60
2023-04-25T05:11:16.298Z,14.60
2023-04-25T05:14:04.422Z,14.50
2023-04-25T05:17:07.930Z,14.50
2023-04-25T05:19:58.748Z,14.50
2023-04-25T05:22:55.805Z,14.50
2023-04-25T05:25:52.965Z,14.60
2023-04-25T05:28:44.281Z,14.70
2023-04-25T05:31:33.335Z,14.70
2023-04-25T05:34:05.636Z,14.80
2023-04-25T05:36:42.550Z,14.90
2023-04-25T05:39:10.544Z,15.00
2023-04-25T05:42:03.179Z,15.10
2023-04-25T05:44:49.975Z,15.20
2023-04-25T05:47:28.062Z,15.30
2023-04-25T05:50:06.264Z,15.40
2023-04-25T05:52:52.552Z,15.50
2023-04-25T05:55:31.505Z,15.50
2023-04-25T05:58:01.960Z,15.50
2023-04-25T06:00:30.299Z,15.40
2023-04-25T06:02:58.558Z,15.40
2023-04-25T06:05:26.739Z,15.50
2023-04-25T06:07:54.794Z,15.60
2023-04-25T06:10:24.038Z,15.60
2023-04-25T06:12:51.834Z,15.60
2023-04-25T06:15:28.255Z,15.70
2023-04-25T06:18:00.125Z,15.80
2023-04-25T06:20:28.198Z,15.90
2023-04-25T06:22:58.812Z,15.90
2023-04-25T06:25:37.195Z,16.00
2023-04-25T06:28:06.193Z,16.10
2023-04-25T06:30:33.953Z,16.30
2023-04-25T06:33:07.485Z,16.30
2023-04-25T06:35:36.266Z,16.50
2023-04-25T06:38:04.877Z,16.60
2023-04-25T06:40:33.683Z,16.50
2023-04-25T06:43:01.652Z,16.50
2023-04-25T06:45:53.074Z,16.70
2023-04-25T06:48:22.695Z,16.90
2023-04-25T06:50:54.014Z,17.00
2023-04-25T06:53:21.956Z,17.20
2023-04-25T06:55:57.096Z,17.40
2023-04-25T06:58:27.705Z,17.60
2023-04-25T07:01:07.254Z,17.80
2023-04-25T07:03:36.413Z,17.90
2023-04-25T07:06:09.349Z,17.90
2023-04-25T07:08:37.249Z,18.10
2023-04-25T07:11:05.218Z,18.30
2023-04-25T07:13:33.395Z,18.40
2023-04-25T07:16:02.073Z,18.50
2023-04-25T07:18:32.740Z,18.70
2023-04-25T07:21:01.721Z,18.70
2023-04-25T07:23:31.499Z,18.70
2023-04-25T07:26:02.412Z,18.60
2023-04-25T07:28:31.617Z,18.50
2023-04-25T07:30:59.597Z,18.50
2023-04-25T07:33:27.828Z,18.70
2023-04-25T07:35:56.176Z,18.80
2023-04-25T07:38:24.636Z,19.00
2023-04-25T07:40:52.741Z,19.20
2023-04-25T07:43:20.827Z,19.50
2023-04-25T07:45:59.110Z,19.70
2023-04-25T07:48:29.407Z,20.00
2023-04-25T07:50:57.784Z,20.00
2023-04-25T07:53:25.869Z,19.80
2023-04-25T07:55:59.456Z,19.90
2023-04-25T07:58:31.288Z,19.80
2023-04-25T08:01:02.439Z,19.70
2023-04-25T08:03:36.779Z,19.90
2023-04-25T08:06:09.823Z,20.10
2023-04-25T08:08:50.095Z,20.40
2023-04-25T08:11:21.250Z,20.60
2023-04-25T08:13:52.053Z,20.80
2023-04-25T08:16:20.193Z,20.90
2023-04-25T08:18:48.265Z,21.10
2023-04-25T08:21:17.265Z,21.10
2023-04-25T08:23:46.274Z,21.10
2023-04-25T08:26:26.934Z,21.10
2023-04-25T08:28:54.958Z,21.10
2023-04-25T08:31:24.090Z,21.30
2023-04-25T08:33:59.790Z,21.30
2023-04-25T08:36:42.276Z,21.50
2023-04-25T08:39:29.210Z,21.50
2023-04-25T08:42:17.692Z,21.60
2023-04-25T08:44:48.788Z,21.90
2023-04-25T08:47:17.315Z,22.10
2023-04-25T08:49:56.331Z,22.40
2023-04-25T08:52:25.833Z,22.60
2023-04-25T08:54:56.061Z,22.90
2023-04-25T08:57:24.826Z,23.10
2023-04-25T08:59:54.441Z,23.20
2023-04-25T09:02:26.127Z,23.30
2023-04-25T09:04:56.796Z,23.50
2023-04-25T09:07:25.173Z,23.60
2023-04-25T09:09:53.902Z,23.80
2023-04-25T09:12:24.412Z,23.70
2023-04-25T09:15:09.992Z,23.70
2023-04-25T09:18:01.560Z,23.80
2023-04-25T09:23:17.190Z,23.80
2023-04-25T09:25:45.291Z,23.90
2023-04-25T09:28:13.833Z,24.00
2023-04-25T09:30:41.816Z,24.20
2023-04-25T09:33:18.134Z,24.30
2023-04-25T09:35:56.505Z,24.20
2023-04-25T09:38:47.478Z,24.30
2023-04-25T09:41:26.352Z,24.30
2023-04-25T09:44:03.110Z,24.50
2023-04-25T09:46:37.990Z,24.40
2023-04-25T09:49:10.738Z,24.20
2023-04-25T09:51:59.679Z,24.30
2023-04-25T09:54:33.272Z,24.50
2023-04-25T09:57:25.321Z,24.80
2023-04-25T09:59:57.300Z,25.00
2023-04-25T10:02:29.336Z,25.10
2023-04-25T10:05:07.370Z,25.10
2023-04-25T10:07:41.320Z,25.00
2023-04-25T10:10:19.999Z,25.40
2023-04-25T10:12:48.490Z,25.70
2023-04-25T10:15:17.365Z,25.80
2023-04-25T10:17:46.603Z,26.10
2023-04-25T10:20:14.711Z,26.60
2023-04-25T10:22:49.395Z,27.00
2023-04-25T10:25:17.729Z,27.30
2023-04-25T10:27:46.114Z,26.90
2023-04-25T10:30:17.993Z,26.80
2023-04-25T10:32:47.022Z,27.40
2023-04-25T10:35:20.656Z,27.70
2023-04-25T10:38:05.621Z,27.90
2023-04-25T10:40:35.100Z,27.90
2023-04-25T10:43:42.531Z,27.80
2023-04-25T10:46:27.545Z,27.60
2023-04-25T10:48:57.712Z,28.30
2023-04-25T10:51:30.793Z,28.80
2023-04-25T10:54:08.559Z,29.40
2023-04-25T10:56:42.611Z,29.30
2023-04-25T10:59:13.350Z,29.10
2023-04-25T11:01:50.528Z,29.10
2023-04-25T11:04:32.185Z,29.20
2023-04-25T11:07:12.839Z,29.30
2023-04-25T11:09:42.050Z,29.30
2023-04-25T11:12:13.215Z,29.50
2023-04-25T11:17:14.680Z,29.80
2023-04-25T11:19:42.444Z,29.30
2023-04-25T11:22:12.447Z,29.40
2023-04-25T11:24:40.767Z,30.20
2023-04-25T11:27:08.740Z,30.10
2023-04-25T11:29:36.892Z,29.20
2023-04-25T11:32:05.007Z,29.40
2023-04-25T11:34:34.347Z,29.80
2023-04-25T11:37:04.058Z,30.50
2023-04-25T11:39:32.244Z,30.50
2023-04-25T11:42:01.553Z,31.20
2023-04-25T11:44:31.581Z,30.90
2023-04-25T11:46:59.463Z,30.70
2023-04-25T11:49:33.392Z,31.10
2023-04-25T11:52:01.405Z,31.40
2023-04-25T11:54:29.232Z,30.80
2023-04-25T11:56:57.996Z,29.80
2023-04-25T11:59:27.094Z,28.70
2023-04-25T12:01:55.783Z,28.70
2023-04-25T12:04:26.032Z,28.70
2023-04-25T12:06:56.646Z,28.90
2023-04-25T12:09:35.224Z,28.40
2023-04-25T12:12:04.444Z,27.50
2023-04-25T12:14:35.495Z,28.00
2023-04-25T12:17:09.534Z,28.10
2023-04-25T12:19:42.271Z,27.90
2023-04-25T12:22:24.821Z,28.10
2023-04-25T12:24:55.366Z,27.40
2023-04-25T12:27:23.541Z,26.50
2023-04-25T12:29:58.274Z,26.70
2023-04-25T12:32:27.903Z,26.60
2023-04-25T12:34:55.937Z,26.10
2023-04-25T12:37:24.347Z,26.30
2023-04-25T12:39:52.595Z,26.90
2023-04-25T12:42:20.550Z,27.30
2023-04-25T12:44:48.440Z,28.30
2023-04-25T12:47:16.716Z,28.40
2023-04-25T12:49:44.519Z,27.70
2023-04-25T12:52:12.554Z,28.60
2023-04-25T12:54:40.383Z,28.70
2023-04-25T12:57:08.379Z,28.70
2023-04-25T12:59:36.208Z,28.90
2023-04-25T13:02:04.402Z,29.00
2023-04-25T13:04:32.807Z,29.20
2023-04-25T13:07:01.391Z,28.90
2023-04-25T13:09:29.141Z,29.00
2023-04-25T13:11:59.165Z,28.40
2023-04-25T13:14:27.644Z,27.50
2023-04-25T13:16:55.680Z,27.50
2023-04-25T13:19:23.882Z,27.50
2023-04-25T13:21:52.075Z,27.90
2023-04-25T13:24:22.975Z,28.30
2023-04-25T13:26:51.317Z,28.70
2023-04-25T13:29:19.147Z,28.70
2023-04-25T13:31:47.221Z,28.90
2023-04-25T13:34:15.020Z,28.80
2023-04-25T13:36:43.016Z,28.50
2023-04-25T13:39:10.998Z,27.30
2023-04-25T13:41:38.992Z,27.30
2023-04-25T13:44:06.864Z,27.50
2023-04-25T13:46:45.530Z,27.80
2023-04-25T13:49:17.753Z,28.20
2023-04-25T13:51:46.146Z,28.40
2023-04-25T13:54:13.978Z,28.50
2023-04-25T13:56:43.652Z,28.40
2023-04-25T13:59:12.246Z,28.30
2023-04-25T14:01:40.201Z,28.00
2023-04-25T14:04:08.211Z,27.80
2023-04-25T14:06:36.863Z,27.50
2023-04-25T14:09:05.895Z,27.30
2023-04-25T14:11:33.835Z,27.00
2023-04-25T14:14:01.917Z,27.00
2023-04-25T14:16:31.603Z,27.20
2023-04-25T14:19:02.467Z,27.00
2023-04-25T14:21:33.972Z,26.90
2023-04-25T14:24:02.271Z,26.90
2023-04-25T14:26:30.246Z,26.90
2023-04-25T14:28:58.237Z,26.80
2023-04-25T14:31:26.263Z,26.80
2023-04-25T14:33:56.313Z,26.80
2023-04-25T14:36:27.777Z,26.40
2023-04-25T14:38:55.561Z,25.90
2023-04-25T14:41:24.563Z,26.00
2023-04-25T14:43:52.922Z,26.20
2023-04-25T14:46:22.213Z,26.20
2023-04-25T14:48:50.611Z,26.20
2023-04-25T14:51:18.754Z,26.20
2023-04-25T14:53:46.686Z,26.30
2023-04-25T14:56:14.614Z,26.40
2023-04-25T14:58:42.514Z,26.50
2023-04-25T15:01:10.978Z,26.40
2023-04-25T15:03:38.946Z,26.40
2023-04-25T15:06:07.979Z,26.50
2023-04-25T15:08:36.020Z,26.30
2023-04-25T15:11:04.522Z,26.10
2023-04-25T15:13:34.022Z,26.20
2023-04-25T15:16:02.698Z,26.10
2023-04-25T15:18:30.661Z,25.90
2023-04-25T15:20:58.837Z,25.70
2023-04-25T15:23:29.598Z,25.60
2023-04-25T15:25:58.037Z,25.50
2023-04-25T15:28:26.430Z,25.40
2023-04-25T15:30:54.513Z,25.40
2023-04-25T15:33:22.430Z,25.30
2023-04-25T15:35:50.818Z,25.10
2023-04-25T15:38:18.577Z,25.00
2023-04-25T15:40:46.841Z,25.00
2023-04-25T15:43:16.554Z,25.00
2023-04-25T15:45:46.021Z,25.00
2023-04-25T15:48:14.200Z,25.00
2023-04-25T15:50:42.832Z,24.90
2023-04-25T15:53:11.476Z,24.80
2023-04-25T15:55:40.133Z,24.60
2023-04-25T15:58:09.515Z,23.70
2023-04-25T16:00:40.434Z,23.20
2023-04-25T16:03:09.827Z,22.60
2023-04-25T16:05:38.182Z,22.20
2023-04-25T16:08:06.142Z,22.00
2023-04-25T16:10:34.349Z,21.60
2023-04-25T16:13:02.370Z,21.40
2023-04-25T16:15:31.670Z,21.40
2023-04-25T16:18:00.882Z,21.20
2023-04-25T16:20:28.891Z,21.10
2023-04-25T16:22:56.775Z,21.00
2023-04-25T16:25:24.765Z,21.00
2023-04-25T16:27:52.832Z,20.90
2023-04-25T16:30:20.982Z,20.80
2023-04-25T16:32:49.203Z,20.60
2023-04-25T16:35:17.334Z,20.50
2023-04-25T16:37:45.314Z,20.50
2023-04-25T16:40:13.559Z,20.40
2023-04-25T16:42:41.538Z,20.30
2023-04-25T16:45:09.910Z,20.10
2023-04-25T16:47:38.032Z,20.10
2023-04-25T16:50:06.648Z,19.90
2023-04-25T16:52:34.848Z,19.80
2023-04-25T16:55:02.816Z,19.70
2023-04-25T16:57:30.956Z,19.60
2023-04-25T16:59:58.988Z,19.50
2023-04-25T17:02:27.720Z,19.60
2023-04-25T17:04:55.716Z,19.50
2023-04-25T17:07:24.741Z,19.50
2023-04-25T17:09:52.752Z,19.60
2023-04-25T17:12:21.916Z,19.60
2023-04-25T17:14:50.691Z,19.50
2023-04-25T17:17:21.812Z,19.50
2023-04-25T17:19:49.699Z,19.50
2023-04-25T17:22:17.953Z,19.50
2023-04-25T17:24:47.063Z,19.40
2023-04-25T17:27:14.963Z,19.30
2023-04-25T17:29:43.099Z,19.30
2023-04-25T17:32:50.274Z,19.00
2023-04-25T17:35:18.801Z,19.00
2023-04-25T17:37:49.905Z,18.90
2023-04-25T17:40:19.136Z,18.80
2023-04-25T17:42:49.251Z,18.80
2023-04-25T17:45:18.719Z,18.80
2023-04-25T17:47:47.225Z,18.90
2023-04-25T17:50:17.844Z,18.90
2023-04-25T17:52:48.632Z,18.80
2023-04-25T17:55:17.017Z,18.70
2023-04-25T17:57:44.700Z,18.70
2023-04-25T18:00:13.982Z,18.60
2023-04-25T18:02:45.976Z,18.60
2023-04-25T18:05:14.052Z,18.60
2023-04-25T18:07:42.812Z,18.70
2023-04-25T18:10:12.670Z,18.70
2023-04-25T18:12:40.624Z,18.70
2023-04-25T18:15:09.629Z,18.70
2023-04-25T18:17:41.200Z,18.70
2023-04-25T18:20:16.067Z,18.70
2023-04-25T18:22:45.522Z,18.80
2023-04-25T18:25:14.372Z,18.80
2023-04-25T18:27:46.516Z,18.80
2023-04-25T18:30:15.190Z,18.90
2023-04-25T18:32:43.973Z,18.90
2023-04-25T18:35:12.590Z,18.90
2023-04-25T18:37:42.197Z,18.90
2023-04-25T18:40:14.243Z,18.90
2023-04-25T18:42:48.121Z,18.90
2023-04-25T18:45:16.430Z,18.90
2023-04-25T18:47:52.773Z,18.90
2023-04-25T18:50:27.073Z,18.80
2023-04-25T18:52:54.901Z,18.80
2023-04-25T18:55:22.706Z,18.80
2023-04-25T18:57:51.387Z,18.70
2023-04-25T19:00:19.464Z,18.80
2023-04-25T19:02:48.159Z,18.70
2023-04-25T19:05:16.131Z,18.70
2023-04-25T19:07:45.389Z,18.60
2023-04-25T19:10:13.329Z,18.70
2023-04-25T19:12:41.357Z,18.60
2023-04-25T19:15:10.308Z,18.60
2023-04-25T19:17:38.272Z,18.60
2023-04-25T19:20:07.389Z,18.60
2023-04-25T19:22:35.948Z,18.60
2023-04-25T19:25:10.799Z,18.60
2023-04-25T19:27:39.935Z,18.60
2023-04-25T19:30:09.227Z,18.50
2023-04-25T19:32:40.807Z,18.50
2023-04-25T19:35:11.560Z,18.50
2023-04-25T19:37:41.641Z,18.50
2023-04-25T19:40:09.940Z,18.50
2023-04-25T19:42:37.809Z,18.50
2023-04-25T19:45:06.130Z,18.40
2023-04-25T19:47:34.109Z,18.40
2023-04-25T19:50:01.738Z,18.40
2023-04-25T19:52:30.889Z,18.30
2023-04-25T19:55:02.784Z,18.30
2023-04-25T19:57:33.950Z,18.30
2023-04-25T20:00:02.716Z,18.30
2023-04-25T20:02:41.370Z,18.20
2023-04-25T20:05:10.021Z,18.20
2023-04-25T20:07:38.497Z,18.30
2023-04-25T20:10:09.485Z,18.30
2023-04-25T20:12:38.199Z,18.20
2023-04-25T20:15:07.847Z,18.20
2023-04-25T20:17:36.603Z,18.20
2023-04-25T20:20:06.738Z,18.20
2023-04-25T20:22:36.484Z,18.20
2023-04-25T20:25:06.985Z,18.20
2023-04-25T20:27:35.298Z,18.20
2023-04-25T20:30:05.335Z,18.20
2023-04-25T20:32:36.932Z,18.20
2023-04-25T20:35:07.253Z,18.10
2023-04-25T20:37:36.175Z,18.10
2023-04-25T20:40:08.272Z,18.10
2023-04-25T20:42:36.679Z,18.10
2023-04-25T20:45:08.182Z,18.10
2023-04-25T20:47:36.313Z,18.10
2023-04-25T20:50:08.014Z,18.10
2023-04-25T20:52:37.851Z,18.00
2023-04-25T20:55:06.899Z,18.00
2023-04-25T20:57:34.910Z,18.00
2023-04-25T21:00:05.801Z,18.00
2023-04-25T21:02:34.854Z,18.00
2023-04-25T21:05:02.559Z,18.00
2023-04-25T21:07:30.674Z,17.90
2023-04-25T21:09:58.392Z,17.70
2023-04-25T21:12:26.376Z,17.60
2023-04-25T21:14:54.229Z,17.50
2023-04-25T21:17:22.200Z,17.50
2023-04-25T21:19:50.345Z,17.40
2023-04-25T21:22:18.424Z,17.30
2023-04-25T21:24:48.212Z,17.20
2023-04-25T21:27:17.815Z,17.20
2023-04-25T21:29:46.369Z,17.10
2023-04-25T21:32:17.914Z,17.10
2023-04-25T21:34:46.099Z,17.10
2023-04-25T21:37:13.867Z,17.20
2023-04-25T21:39:42.072Z,17.20
2023-04-25T21:42:11.222Z,17.20
2023-04-25T21:44:39.380Z,17.10
2023-04-25T21:47:07.226Z,17.00
2023-04-25T21:49:35.654Z,17.00
2023-04-25T21:52:07.184Z,16.90
2023-04-25T21:54:36.920Z,16.90
2023-04-25T21:57:04.924Z,16.90
2023-04-25T21:59:33.444Z,17.00
2023-04-25T22:02:01.379Z,17.00
2023-04-25T22:04:29.465Z,17.00
2023-04-25T22:06:57.541Z,17.00
2023-04-25T22:09:25.980Z,17.00
2023-04-25T22:11:54.405Z,17.00
2023-04-25T22:14:22.393Z,16.90
2023-04-25T22:16:50.481Z,16.80
2023-04-25T22:19:18.729Z,16.80
2023-04-25T22:21:47.055Z,16.80
2023-04-25T22:24:15.674Z,16.70
2023-04-25T22:26:43.696Z,16.70
2023-04-25T22:29:12.795Z,16.70
2023-04-25T22:31:40.846Z,16.70
2023-04-25T22:34:09.138Z,16.70
2023-04-25T22:36:37.180Z,16.70
2023-04-25T22:39:05.377Z,16.70
2023-04-25T22:41:33.297Z,16.80
2023-04-25T22:44:01.699Z,16.80
2023-04-25T22:46:30.577Z,16.80
2023-04-25T22:48:58.624Z,16.80
2023-04-25T22:51:26.579Z,16.90
2023-04-25T22:53:54.696Z,16.90
2023-04-25T22:56:22.861Z,16.90
2023-04-25T22:58:51.959Z,16.90
2023-04-25T23:01:20.089Z,16.90
2023-04-25T23:03:48.788Z,16.90
2023-04-25T23:06:19.973Z,16.90
2023-04-25T23:08:48.440Z,16.90
2023-04-25T23:11:16.170Z,16.90
2023-04-25T23:13:44.280Z,16.80
2023-04-25T23:16:12.233Z,16.80
2023-04-25T23:18:43.676Z,16.80
2023-04-25T23:21:12.754Z,16.80
2023-04-25T23:23:43.956Z,16.70
2023-04-25T23:26:12.333Z,16.80
2023-04-25T23:28:42.091Z,16.90
2023-04-25T23:31:12.117Z,17.10
2023-04-25T23:33:39.996Z,17.40
2023-04-25T23:36:08.081Z,17.50
2023-04-25T23:38:36.500Z,17.60
2023-04-25T23:41:04.448Z,17.70
2023-04-25T23:43:32.622Z,17.90
2023-04-25T23:46:00.680Z,17.90
2023-04-25T23:48:28.497Z,17.90
2023-04-25T23:50:57.090Z,17.90
2023-04-25T23:53:25.010Z,17.90
2023-04-25T23:55:53.166Z,17.80
2023-04-25T23:58:21.192Z,17.70
